• Join FlightAware (Why Join?)
  • Login
  • US Flag 
Rudolph Flight #1: Arrived! 
11:12PM EST


 

Airport Tracker/Info


-or-


 

Live Flight TrackerFlight Track Log ✈ N5293J ✈ 01-Nov-2013 ✈ KSAW - KMKG

Flight Track Log - Related Links

Times and Time Zones

All times are in EDT time to prevent confusion due to time zone crossing. See the N5293J flight status page for this flight to view local times or setup timezone preferences in your user account.

Time Position Orientation Groundspeed Altitude Reporting Facility
EDT Latitude Longitude Course Direction KTS MPH feet Rate Location/Type
04:51PM 46.3383 -87.3981 161° South 10 12 1,100  Level Minneapolis Center
04:53PM 46.3631 -87.3922 North 90 104 1,800 900 Climbing Minneapolis Center
04:54PM 46.4006 -87.3822 10° North 121 139 3,000 960 Climbing Minneapolis Center
04:55PM 46.4308 -87.3656 21° North 133 153 3,900 960 Climbing Minneapolis Center
04:56PM 46.4008 -87.3289 140° Southeast 148 170 5,100 1,020 Climbing Minneapolis Center
04:57PM 46.3603 -87.3131 165° South 148 170 6,100 960 Climbing Minneapolis Center
04:58PM 46.0752 -87.2886 161° South  Level Estimated
04:58PM 46.3189 -87.2983 166° South 149 171 7,100  Level Minneapolis Center
04:59PM 46.2758 -87.2825 166° South 155 178 8,000 900 Climbing Minneapolis Center
05:00PM 46.2314 -87.2667 166° South 161 185 9,000 960 Climbing Minneapolis Center
05:01PM 46.1847 -87.2492 165° South 157 181 10,100 960 Climbing Minneapolis Center
05:02PM 46.1425 -87.2322 164° South 154 177 11,100 900 Climbing Minneapolis Center
05:03PM 46.0983 -87.2167 166° South 161 185 12,000 900 Climbing Minneapolis Center
05:04PM 46.0536 -87.2022 167° South 162 186 13,000 900 Climbing Minneapolis Center
05:05PM 46.0103 -87.1853 165° South 160 184 13,900 900 Climbing Minneapolis Center
05:06PM 45.9611 -87.1683 167° South 166 191 14,900 480 Climbing Minneapolis Center
05:07PM 45.9106 -87.1525 168° South 186 214 14,900  Level Minneapolis Center
05:08PM 45.8522 -87.1322 166° South 208 239 14,900  Level Minneapolis Center
05:09PM 45.7947 -87.1114 166° South 209 241 14,900  Level Minneapolis Center
05:10PM 45.7375 -87.0889 165° South 210 242 14,900  Level Minneapolis Center
05:11PM 45.6750 -87.0681 167° South 210 242 14,900  Level Minneapolis Center
05:12PM 45.6164 -87.0506 168° South 210 242 14,900  Level Minneapolis Center
05:13PM 45.5592 -87.0314 167° South 211 243 14,900  Level Minneapolis Center
05:14PM 45.5031 -87.0117 166° South 210 242 14,900  Level Minneapolis Center
05:15PM 45.4461 -86.9944 168° South 211 243 14,900  Level Minneapolis Center
05:16PM 45.3892 -86.9747 166° South 211 243 14,900  Level Minneapolis Center
05:17PM 45.3328 -86.9542 166° South 210 242 14,900  Level Minneapolis Center
05:18PM 45.2658 -86.9303 166° South 209 241 14,900  Level Minneapolis Center
05:19PM 45.2094 -86.9083 165° South 211 243 14,900  Level Minneapolis Center
05:20PM 45.1533 -86.8886 166° South 210 242 14,900  Level Minneapolis Center
05:21PM 45.0989 -86.8675 165° South 206 237 14,900  Level Minneapolis Center
05:22PM 45.0444 -86.8469 165° South 204 235 14,900  Level Minneapolis Center
05:24PM 44.9903 -86.8292 167° South 202 232 14,900  Level Minneapolis Center
05:25PM 44.9250 -86.8083 167° South 201 231 15,000  Climbing Minneapolis Center
05:26PM 44.8722 -86.7925 168° South 197 227 15,000  Level Minneapolis Center
05:27PM 44.8194 -86.7750 167° South 196 226 15,000 -60 Level Minneapolis Center
05:28PM 44.7661 -86.7583 167° South 197 227 14,900 -60 Descending Minneapolis Center
05:29PM 44.7131 -86.7425 168° South 196 226 14,900  Level Minneapolis Center
05:30PM 44.6603 -86.7250 167° South 196 226 14,900  Level Minneapolis Center
05:31PM 44.5972 -86.7025 166° South 195 224 14,900  Level Minneapolis Center
05:32PM 44.5447 -86.6842 166° South 195 224 14,900  Level Minneapolis Center
05:33PM 44.4917 -86.6647 165° South 196 226 14,900 -120 Level Minneapolis Center
05:34PM 44.4386 -86.6469 167° South 197 227 14,700 -360 Descending Minneapolis Center
05:35PM 44.3825 -86.6289 167° South 205 236 14,200 -540 Descending Minneapolis Center
05:36PM 44.3242 -86.6131 169° South 211 243 13,700 -660 Descending Minneapolis Center
05:37PM 44.2547 -86.5917 168° South 213 245 12,900 -660 Descending Minneapolis Center
05:38PM 44.1969 -86.5722 166° South 213 245 12,400 -540 Descending Minneapolis Center
05:39PM 44.1389 -86.5542 167° South 215 247 11,800 -600 Descending Minneapolis Center
05:40PM 44.0775 -86.5331 166° South 216 249 11,200 -600 Descending Minneapolis Center
05:41PM 44.0189 -86.5139 167° South 216 249 10,600 -660 Descending Minneapolis Center
05:42PM 43.9614 -86.4936 166° South 214 246 9,900 -660 Descending Minneapolis Center
05:43PM 43.9036 -86.4708 164° South 216 249 9,300 -720 Descending Minneapolis Center
05:44PM 43.8478 -86.4522 166° South 209 241 8,500 -780 Descending Minneapolis Center
05:45PM 43.7803 -86.4303 167° South 209 241 7,700 -660 Descending Minneapolis Center
05:46PM 43.7233 -86.4153 169° South 208 239 7,200 -540 Descending Minneapolis Center
05:47PM 43.6672 -86.3992 168° South 207 238 6,700 -540 Descending Minneapolis Center
05:48PM 43.6111 -86.3814 167° South 207 238 6,100 -540 Descending Minneapolis Center
05:49PM 43.5697 -86.3272 137° Southeast 215 247 5,700 -480 Descending Minneapolis Center
05:50PM 43.5422 -86.2769 127° Southeast 211 243 5,300 -600 Descending Chicago Center
05:51PM 43.5033 -86.2206 134° Southeast 206 237 4,600 -600 Descending Chicago Center
05:52PM 43.4636 -86.1653 135° Southeast 205 236 4,100 -600 Descending Chicago Center
05:53PM 43.4139 -86.1064 139° Southeast 199 229 3,400 -660 Descending Chicago Center
05:54PM 43.3686 -86.0642 146° Southeast 198 228 2,800 -360 Descending Chicago Center
05:55PM 43.3189 -86.0425 162° South 193 222 2,700 -60 Descending Chicago Center
05:56PM 43.2753 -86.0467 184° South 175 201 2,700  Level Chicago Center
05:57PM 43.2431 -86.0811 218° Southwest 162 186 2,700 -180 Level Chicago Center
05:58PM 43.2181 -86.1375 239° Southwest 151 174 2,400 -540 Descending Chicago Center
05:59PM 43.1967 -86.1800 235° Southwest 142 163 1,600 -720 Descending Chicago Center
06:00PM 43.1778 -86.2186 236° Southwest 132 152 1,000 -360 Descending Chicago Center
06:01PM 43.1639 -86.2514 240° Southwest 127 146 900 -120 Descending Chicago Center